sensor_id;sensor_type;location;lat;lon;timestamp;temperature;humidity
15574;DHT22;7888;46.748;8.102;2023-02-20T00:01:45;13.30;45.30
15574;DHT22;7888;46.748;8.102;2023-02-20T00:04:16;13.20;45.30
15574;DHT22;7888;46.748;8.102;2023-02-20T00:06:43;13.30;45.40
15574;DHT22;7888;46.748;8.102;2023-02-20T00:09:09;13.20;45.50
15574;DHT22;7888;46.748;8.102;2023-02-20T00:11:35;13.20;45.70
15574;DHT22;7888;46.748;8.102;2023-02-20T00:14:01;13.20;45.60
15574;DHT22;7888;46.748;8.102;2023-02-20T00:16:27;13.20;45.60
15574;DHT22;7888;46.748;8.102;2023-02-20T00:18:53;13.30;45.70
15574;DHT22;7888;46.748;8.102;2023-02-20T00:21:18;13.30;45.50
15574;DHT22;7888;46.748;8.102;2023-02-20T00:23:44;13.20;45.60
15574;DHT22;7888;46.748;8.102;2023-02-20T00:26:12;13.20;45.60
15574;DHT22;7888;46.748;8.102;2023-02-20T00:28:39;13.20;45.70
15574;DHT22;7888;46.748;8.102;2023-02-20T00:31:07;13.20;45.60
15574;DHT22;7888;46.748;8.102;2023-02-20T00:33:36;13.20;45.70
15574;DHT22;7888;46.748;8.102;2023-02-20T00:36:03;13.20;45.80
15574;DHT22;7888;46.748;8.102;2023-02-20T00:38:29;13.20;45.90
15574;DHT22;7888;46.748;8.102;2023-02-20T00:40:55;13.20;46.00
15574;DHT22;7888;46.748;8.102;2023-02-20T00:43:21;13.10;45.90
15574;DHT22;7888;46.748;8.102;2023-02-20T00:45:46;13.10;46.00
15574;DHT22;7888;46.748;8.102;2023-02-20T00:48:13;13.00;46.20
15574;DHT22;7888;46.748;8.102;2023-02-20T00:50:38;13.00;46.30
15574;DHT22;7888;46.748;8.102;2023-02-20T00:53:04;13.00;46.40
15574;DHT22;7888;46.748;8.102;2023-02-20T00:55:30;12.90;46.50
15574;DHT22;7888;46.748;8.102;2023-02-20T00:57:56;12.90;46.30
15574;DHT22;7888;46.748;8.102;2023-02-20T01:00:27;12.90;46.30
15574;DHT22;7888;46.748;8.102;2023-02-20T01:02:54;12.90;46.50
15574;DHT22;7888;46.748;8.102;2023-02-20T01:05:21;12.90;46.30
15574;DHT22;7888;46.748;8.102;2023-02-20T01:07:47;12.90;46.30
15574;DHT22;7888;46.748;8.102;2023-02-20T01:10:14;12.90;46.20
15574;DHT22;7888;46.748;8.102;2023-02-20T01:12:40;12.90;46.20
15574;DHT22;7888;46.748;8.102;2023-02-20T01:15:07;13.00;46.20
15574;DHT22;7888;46.748;8.102;2023-02-20T01:17:34;13.00;46.90
15574;DHT22;7888;46.748;8.102;2023-02-20T01:19:59;12.90;46.20
15574;DHT22;7888;46.748;8.102;2023-02-20T01:22:25;12.90;46.80
15574;DHT22;7888;46.748;8.102;2023-02-20T01:24:51;13.00;46.10
15574;DHT22;7888;46.748;8.102;2023-02-20T01:27:17;12.90;46.10
15574;DHT22;7888;46.748;8.102;2023-02-20T01:29:42;13.00;46.30
15574;DHT22;7888;46.748;8.102;2023-02-20T01:32:11;13.00;46.30
15574;DHT22;7888;46.748;8.102;2023-02-20T01:34:37;13.00;46.40
15574;DHT22;7888;46.748;8.102;2023-02-20T01:37:03;13.00;46.20
15574;DHT22;7888;46.748;8.102;2023-02-20T01:39:29;13.00;46.30
15574;DHT22;7888;46.748;8.102;2023-02-20T01:42:03;13.00;46.30
15574;DHT22;7888;46.748;8.102;2023-02-20T01:44:33;13.00;46.90
15574;DHT22;7888;46.748;8.102;2023-02-20T01:47:21;13.00;46.30
15574;DHT22;7888;46.748;8.102;2023-02-20T01:49:59;13.00;46.40
15574;DHT22;7888;46.748;8.102;2023-02-20T01:52:30;13.00;46.70
15574;DHT22;7888;46.748;8.102;2023-02-20T01:55:04;12.90;46.40
15574;DHT22;7888;46.748;8.102;2023-02-20T01:57:34;12.90;46.40
15574;DHT22;7888;46.748;8.102;2023-02-20T02:00:10;12.90;46.40
15574;DHT22;7888;46.748;8.102;2023-02-20T02:02:43;12.90;46.30
15574;DHT22;7888;46.748;8.102;2023-02-20T02:05:15;12.90;47.10
15574;DHT22;7888;46.748;8.102;2023-02-20T02:07:43;12.80;46.40
15574;DHT22;7888;46.748;8.102;2023-02-20T02:10:17;12.90;46.50
15574;DHT22;7888;46.748;8.102;2023-02-20T02:12:50;12.80;46.70
15574;DHT22;7888;46.748;8.102;2023-02-20T02:15:20;12.80;46.30
15574;DHT22;7888;46.748;8.102;2023-02-20T02:18:07;12.80;46.50
15574;DHT22;7888;46.748;8.102;2023-02-20T02:21:43;12.80;47.00
15574;DHT22;7888;46.748;8.102;2023-02-20T02:24:16;12.80;46.50
15574;DHT22;7888;46.748;8.102;2023-02-20T02:27:16;12.70;46.60
15574;DHT22;7888;46.748;8.102;2023-02-20T02:42:07;12.60;46.50
15574;DHT22;7888;46.748;8.102;2023-02-20T02:47:56;12.50;46.80
15574;DHT22;7888;46.748;8.102;2023-02-20T02:50:32;12.50;46.50
15574;DHT22;7888;46.748;8.102;2023-02-20T02:53:03;12.40;46.20
15574;DHT22;7888;46.748;8.102;2023-02-20T02:55:31;12.40;46.20
15574;DHT22;7888;46.748;8.102;2023-02-20T02:58:02;12.40;46.40
15574;DHT22;7888;46.748;8.102;2023-02-20T03:00:34;12.30;46.10
15574;DHT22;7888;46.748;8.102;2023-02-20T03:06:20;12.20;46.20
15574;DHT22;7888;46.748;8.102;2023-02-20T03:09:05;12.10;46.40
15574;DHT22;7888;46.748;8.102;2023-02-20T03:11:35;12.10;46.30
15574;DHT22;7888;46.748;8.102;2023-02-20T03:14:09;12.10;46.30
15574;DHT22;7888;46.748;8.102;2023-02-20T03:19:41;12.00;46.30
15574;DHT22;7888;46.748;8.102;2023-02-20T03:22:28;11.90;46.30
15574;DHT22;7888;46.748;8.102;2023-02-20T03:25:14;11.90;46.40
15574;DHT22;7888;46.748;8.102;2023-02-20T03:28:20;11.80;46.40
15574;DHT22;7888;46.748;8.102;2023-02-20T03:31:20;11.80;46.00
15574;DHT22;7888;46.748;8.102;2023-02-20T03:34:31;11.80;46.00
15574;DHT22;7888;46.748;8.102;2023-02-20T03:37:16;11.70;46.10
15574;DHT22;7888;46.748;8.102;2023-02-20T03:40:06;11.70;46.20
15574;DHT22;7888;46.748;8.102;2023-02-20T03:42:57;11.60;46.10
15574;DHT22;7888;46.748;8.102;2023-02-20T03:45:45;11.60;46.40
15574;DHT22;7888;46.748;8.102;2023-02-20T03:48:24;11.50;46.30
15574;DHT22;7888;46.748;8.102;2023-02-20T03:50:55;11.50;46.60
15574;DHT22;7888;46.748;8.102;2023-02-20T03:53:23;11.50;46.50
15574;DHT22;7888;46.748;8.102;2023-02-20T03:55:51;11.40;46.60
15574;DHT22;7888;46.748;8.102;2023-02-20T03:58:22;11.40;46.60
15574;DHT22;7888;46.748;8.102;2023-02-20T04:00:51;11.30;46.80
15574;DHT22;7888;46.748;8.102;2023-02-20T04:03:22;11.30;46.80
15574;DHT22;7888;46.748;8.102;2023-02-20T04:05:54;11.20;46.80
15574;DHT22;7888;46.748;8.102;2023-02-20T04:08:27;11.20;46.80
15574;DHT22;7888;46.748;8.102;2023-02-20T04:11:14;11.10;47.00
15574;DHT22;7888;46.748;8.102;2023-02-20T04:13:47;11.10;47.20
15574;DHT22;7888;46.748;8.102;2023-02-20T04:16:15;11.10;46.80
15574;DHT22;7888;46.748;8.102;2023-02-20T04:18:42;11.00;46.80
15574;DHT22;7888;46.748;8.102;2023-02-20T04:21:15;11.00;46.90
15574;DHT22;7888;46.748;8.102;2023-02-20T04:23:50;11.00;47.20
15574;DHT22;7888;46.748;8.102;2023-02-20T04:26:22;10.90;47.20
15574;DHT22;7888;46.748;8.102;2023-02-20T04:28:48;10.90;47.00
15574;DHT22;7888;46.748;8.102;2023-02-20T04:31:16;10.90;47.00
15574;DHT22;7888;46.748;8.102;2023-02-20T04:33:43;10.90;47.10
15574;DHT22;7888;46.748;8.102;2023-02-20T04:36:09;10.80;47.60
15574;DHT22;7888;46.748;8.102;2023-02-20T04:38:35;10.80;47.80
15574;DHT22;7888;46.748;8.102;2023-02-20T04:41:01;10.80;47.70
15574;DHT22;7888;46.748;8.102;2023-02-20T04:43:27;10.70;47.50
15574;DHT22;7888;46.748;8.102;2023-02-20T04:45:53;10.70;47.30
15574;DHT22;7888;46.748;8.102;2023-02-20T04:48:18;10.70;47.10
15574;DHT22;7888;46.748;8.102;2023-02-20T04:50:44;10.70;47.20
15574;DHT22;7888;46.748;8.102;2023-02-20T04:53:10;10.60;47.10
15574;DHT22;7888;46.748;8.102;2023-02-20T04:55:36;10.60;46.90
15574;DHT22;7888;46.748;8.102;2023-02-20T04:58:02;10.60;47.10
15574;DHT22;7888;46.748;8.102;2023-02-20T05:00:28;10.50;47.10
15574;DHT22;7888;46.748;8.102;2023-02-20T05:02:54;10.50;47.20
15574;DHT22;7888;46.748;8.102;2023-02-20T05:05:23;10.50;47.10
15574;DHT22;7888;46.748;8.102;2023-02-20T05:08:02;10.40;47.00
15574;DHT22;7888;46.748;8.102;2023-02-20T05:10:32;10.40;47.20
15574;DHT22;7888;46.748;8.102;2023-02-20T05:12:59;10.40;47.00
15574;DHT22;7888;46.748;8.102;2023-02-20T05:15:26;10.40;47.10
15574;DHT22;7888;46.748;8.102;2023-02-20T05:17:53;10.30;47.10
15574;DHT22;7888;46.748;8.102;2023-02-20T05:20:19;10.30;47.10
15574;DHT22;7888;46.748;8.102;2023-02-20T05:22:46;10.30;47.30
15574;DHT22;7888;46.748;8.102;2023-02-20T05:25:14;10.30;47.30
15574;DHT22;7888;46.748;8.102;2023-02-20T05:27:40;10.20;47.20
15574;DHT22;7888;46.748;8.102;2023-02-20T05:30:08;10.20;47.20
15574;DHT22;7888;46.748;8.102;2023-02-20T05:32:34;10.20;47.30
15574;DHT22;7888;46.748;8.102;2023-02-20T05:35:00;10.20;47.40
15574;DHT22;7888;46.748;8.102;2023-02-20T05:37:27;10.10;47.30
15574;DHT22;7888;46.748;8.102;2023-02-20T05:39:53;10.10;47.20
15574;DHT22;7888;46.748;8.102;2023-02-20T05:42:19;10.10;47.40
15574;DHT22;7888;46.748;8.102;2023-02-20T05:44:47;10.10;47.40
15574;DHT22;7888;46.748;8.102;2023-02-20T05:47:14;10.10;47.50
15574;DHT22;7888;46.748;8.102;2023-02-20T05:49:41;10.10;47.60
15574;DHT22;7888;46.748;8.102;2023-02-20T05:52:07;10.10;47.60
15574;DHT22;7888;46.748;8.102;2023-02-20T05:54:37;10.00;47.50
15574;DHT22;7888;46.748;8.102;2023-02-20T05:57:04;10.00;47.50
15574;DHT22;7888;46.748;8.102;2023-02-20T05:59:30;10.00;47.90
15574;DHT22;7888;46.748;8.102;2023-02-20T06:01:57;10.00;48.00
15574;DHT22;7888;46.748;8.102;2023-02-20T06:04:24;9.90;47.80
15574;DHT22;7888;46.748;8.102;2023-02-20T06:06:50;9.90;47.70
15574;DHT22;7888;46.748;8.102;2023-02-20T06:09:16;9.90;47.70
15574;DHT22;7888;46.748;8.102;2023-02-20T06:11:50;9.90;47.70
15574;DHT22;7888;46.748;8.102;2023-02-20T06:14:24;9.90;47.90
15574;DHT22;7888;46.748;8.102;2023-02-20T06:16:50;9.80;47.60
15574;DHT22;7888;46.748;8.102;2023-02-20T06:19:18;9.80;47.90
15574;DHT22;7888;46.748;8.102;2023-02-20T06:21:47;9.80;48.40
15574;DHT22;7888;46.748;8.102;2023-02-20T06:24:14;9.80;48.20
15574;DHT22;7888;46.748;8.102;2023-02-20T06:26:41;9.80;48.20
15574;DHT22;7888;46.748;8.102;2023-02-20T06:29:09;9.80;48.20
15574;DHT22;7888;46.748;8.102;2023-02-20T06:31:35;9.70;48.20
15574;DHT22;7888;46.748;8.102;2023-02-20T06:34:01;9.70;47.90
15574;DHT22;7888;46.748;8.102;2023-02-20T06:36:30;9.70;47.80
15574;DHT22;7888;46.748;8.102;2023-02-20T06:38:59;9.60;48.00
15574;DHT22;7888;46.748;8.102;2023-02-20T06:41:25;9.60;48.20
15574;DHT22;7888;46.748;8.102;2023-02-20T06:43:51;9.60;48.40
15574;DHT22;7888;46.748;8.102;2023-02-20T06:46:18;9.60;48.50
15574;DHT22;7888;46.748;8.102;2023-02-20T06:48:49;9.60;48.50
15574;DHT22;7888;46.748;8.102;2023-02-20T06:51:22;9.60;48.40
15574;DHT22;7888;46.748;8.102;2023-02-20T06:53:50;9.60;48.40
15574;DHT22;7888;46.748;8.102;2023-02-20T06:56:18;9.60;48.40
15574;DHT22;7888;46.748;8.102;2023-02-20T06:58:47;9.50;48.40
15574;DHT22;7888;46.748;8.102;2023-02-20T07:01:16;9.60;48.50
15574;DHT22;7888;46.748;8.102;2023-02-20T07:03:44;9.50;48.60
15574;DHT22;7888;46.748;8.102;2023-02-20T07:06:11;9.50;48.70
15574;DHT22;7888;46.748;8.102;2023-02-20T07:08:37;9.50;48.80
15574;DHT22;7888;46.748;8.102;2023-02-20T07:11:03;9.50;48.70
15574;DHT22;7888;46.748;8.102;2023-02-20T07:13:29;9.50;48.80
15574;DHT22;7888;46.748;8.102;2023-02-20T07:15:55;9.50;48.90
15574;DHT22;7888;46.748;8.102;2023-02-20T07:18:20;9.50;48.90
15574;DHT22;7888;46.748;8.102;2023-02-20T07:20:55;9.50;49.20
15574;DHT22;7888;46.748;8.102;2023-02-20T07:23:22;9.60;49.50
15574;DHT22;7888;46.748;8.102;2023-02-20T07:25:48;9.60;49.70
15574;DHT22;7888;46.748;8.102;2023-02-20T07:28:16;9.70;49.80
15574;DHT22;7888;46.748;8.102;2023-02-20T07:30:44;9.80;50.00
15574;DHT22;7888;46.748;8.102;2023-02-20T07:33:11;9.90;50.20
15574;DHT22;7888;46.748;8.102;2023-02-20T07:35:37;10.00;50.10
15574;DHT22;7888;46.748;8.102;2023-02-20T07:38:03;10.10;50.20
15574;DHT22;7888;46.748;8.102;2023-02-20T07:40:29;10.20;50.40
15574;DHT22;7888;46.748;8.102;2023-02-20T07:42:55;10.30;50.40
15574;DHT22;7888;46.748;8.102;2023-02-20T07:45:21;10.40;50.10
15574;DHT22;7888;46.748;8.102;2023-02-20T07:47:47;10.50;50.00
15574;DHT22;7888;46.748;8.102;2023-02-20T07:50:14;10.60;50.00
15574;DHT22;7888;46.748;8.102;2023-02-20T07:52:41;10.70;49.90
15574;DHT22;7888;46.748;8.102;2023-02-20T07:55:08;10.70;49.60
15574;DHT22;7888;46.748;8.102;2023-02-20T07:57:35;10.80;49.40
15574;DHT22;7888;46.748;8.102;2023-02-20T08:00:03;10.80;49.40
15574;DHT22;7888;46.748;8.102;2023-02-20T08:02:29;10.90;49.50
15574;DHT22;7888;46.748;8.102;2023-02-20T08:04:55;10.90;49.60
15574;DHT22;7888;46.748;8.102;2023-02-20T08:07:21;10.90;49.70
15574;DHT22;7888;46.748;8.102;2023-02-20T08:09:47;11.00;49.60
15574;DHT22;7888;46.748;8.102;2023-02-20T08:12:13;11.10;49.50
15574;DHT22;7888;46.748;8.102;2023-02-20T08:14:39;11.10;49.40
15574;DHT22;7888;46.748;8.102;2023-02-20T08:17:05;11.20;49.40
15574;DHT22;7888;46.748;8.102;2023-02-20T08:19:31;11.20;49.40
15574;DHT22;7888;46.748;8.102;2023-02-20T08:21:57;11.30;49.40
15574;DHT22;7888;46.748;8.102;2023-02-20T08:24:23;11.30;49.40
15574;DHT22;7888;46.748;8.102;2023-02-20T08:26:49;11.40;49.50
15574;DHT22;7888;46.748;8.102;2023-02-20T08:29:15;11.50;49.60
15574;DHT22;7888;46.748;8.102;2023-02-20T08:31:42;11.50;49.50
15574;DHT22;7888;46.748;8.102;2023-02-20T08:34:08;11.60;49.50
15574;DHT22;7888;46.748;8.102;2023-02-20T08:36:34;11.60;49.30
15574;DHT22;7888;46.748;8.102;2023-02-20T08:39:00;11.70;49.10
15574;DHT22;7888;46.748;8.102;2023-02-20T08:41:28;11.70;49.10
15574;DHT22;7888;46.748;8.102;2023-02-20T08:43:54;11.80;49.00
15574;DHT22;7888;46.748;8.102;2023-02-20T08:46:20;11.80;49.00
15574;DHT22;7888;46.748;8.102;2023-02-20T08:48:46;11.80;49.10
15574;DHT22;7888;46.748;8.102;2023-02-20T08:51:12;11.90;49.10
15574;DHT22;7888;46.748;8.102;2023-02-20T08:53:42;12.00;49.20
15574;DHT22;7888;46.748;8.102;2023-02-20T08:56:09;12.00;49.10
15574;DHT22;7888;46.748;8.102;2023-02-20T08:58:37;12.10;49.10
15574;DHT22;7888;46.748;8.102;2023-02-20T09:01:04;12.10;48.90
15574;DHT22;7888;46.748;8.102;2023-02-20T09:03:30;12.20;48.80
15574;DHT22;7888;46.748;8.102;2023-02-20T09:05:56;12.20;48.80
15574;DHT22;7888;46.748;8.102;2023-02-20T09:08:22;12.20;48.70
15574;DHT22;7888;46.748;8.102;2023-02-20T09:10:47;12.30;48.70
15574;DHT22;7888;46.748;8.102;2023-02-20T09:13:13;12.40;48.70
15574;DHT22;7888;46.748;8.102;2023-02-20T09:15:39;12.40;48.70
15574;DHT22;7888;46.748;8.102;2023-02-20T09:18:07;12.50;48.70
15574;DHT22;7888;46.748;8.102;2023-02-20T09:20:35;12.60;48.80
15574;DHT22;7888;46.748;8.102;2023-02-20T09:23:03;12.60;48.80
15574;DHT22;7888;46.748;8.102;2023-02-20T09:25:30;12.70;48.70
15574;DHT22;7888;46.748;8.102;2023-02-20T09:27:56;12.80;48.70
15574;DHT22;7888;46.748;8.102;2023-02-20T09:30:22;12.90;48.60
15574;DHT22;7888;46.748;8.102;2023-02-20T09:32:49;13.00;48.50
15574;DHT22;7888;46.748;8.102;2023-02-20T09:35:19;13.00;48.30
15574;DHT22;7888;46.748;8.102;2023-02-20T09:37:51;13.10;48.40
15574;DHT22;7888;46.748;8.102;2023-02-20T09:40:25;13.20;48.30
15574;DHT22;7888;46.748;8.102;2023-02-20T09:43:08;13.20;48.10
15574;DHT22;7888;46.748;8.102;2023-02-20T09:46:04;13.30;48.00
15574;DHT22;7888;46.748;8.102;2023-02-20T09:48:45;13.40;48.00
15574;DHT22;7888;46.748;8.102;2023-02-20T09:51:48;13.50;47.90
15574;DHT22;7888;46.748;8.102;2023-02-20T09:54:28;13.60;47.90
15574;DHT22;7888;46.748;8.102;2023-02-20T09:57:01;13.70;47.90
15574;DHT22;7888;46.748;8.102;2023-02-20T09:59:57;13.70;47.70
15574;DHT22;7888;46.748;8.102;2023-02-20T10:02:34;13.80;47.70
15574;DHT22;7888;46.748;8.102;2023-02-20T10:05:30;13.90;47.60
15574;DHT22;7888;46.748;8.102;2023-02-20T10:07:56;14.00;47.50
15574;DHT22;7888;46.748;8.102;2023-02-20T10:10:30;14.20;47.60
15574;DHT22;7888;46.748;8.102;2023-02-20T10:19:08;14.50;47.20
15574;DHT22;7888;46.748;8.102;2023-02-20T10:27:52;14.80;46.90
15574;DHT22;7888;46.748;8.102;2023-02-20T10:31:12;14.90;46.70
15574;DHT22;7888;46.748;8.102;2023-02-20T10:33:48;15.00;46.70
15574;DHT22;7888;46.748;8.102;2023-02-20T10:36:42;15.20;46.60
15574;DHT22;7888;46.748;8.102;2023-02-20T10:39:15;15.30;46.80
15574;DHT22;7888;46.748;8.102;2023-02-20T10:41:52;15.40;46.90
15574;DHT22;7888;46.748;8.102;2023-02-20T10:45:03;15.60;46.70
15574;DHT22;7888;46.748;8.102;2023-02-20T10:50:17;16.00;46.10
15574;DHT22;7888;46.748;8.102;2023-02-20T10:53:09;16.10;46.10
15574;DHT22;7888;46.748;8.102;2023-02-20T10:55:55;16.20;45.00
15574;DHT22;7888;46.748;8.102;2023-02-20T10:58:32;16.40;45.10
15574;DHT22;7888;46.748;8.102;2023-02-20T11:01:21;16.50;45.10
15574;DHT22;7888;46.748;8.102;2023-02-20T11:03:55;16.50;45.20
15574;DHT22;7888;46.748;8.102;2023-02-20T11:07:03;16.70;45.40
15574;DHT22;7888;46.748;8.102;2023-02-20T11:09:33;16.80;45.00
15574;DHT22;7888;46.748;8.102;2023-02-20T11:11:59;17.00;45.30
15574;DHT22;7888;46.748;8.102;2023-02-20T11:14:33;17.10;45.30
15574;DHT22;7888;46.748;8.102;2023-02-20T11:17:12;17.30;44.90
15574;DHT22;7888;46.748;8.102;2023-02-20T11:19:43;17.50;44.90
15574;DHT22;7888;46.748;8.102;2023-02-20T11:22:12;17.70;44.50
15574;DHT22;7888;46.748;8.102;2023-02-20T11:24:40;17.90;44.30
15574;DHT22;7888;46.748;8.102;2023-02-20T11:27:14;18.00;44.10
15574;DHT22;7888;46.748;8.102;2023-02-20T11:32:24;18.40;43.80
15574;DHT22;7888;46.748;8.102;2023-02-20T11:35:20;18.50;43.20
15574;DHT22;7888;46.748;8.102;2023-02-20T11:38:35;18.70;42.70
15574;DHT22;7888;46.748;8.102;2023-02-20T11:43:27;18.90;42.00
15574;DHT22;7888;46.748;8.102;2023-02-20T11:46:22;19.00;42.10
15574;DHT22;7888;46.748;8.102;2023-02-20T11:49:08;19.10;41.20
15574;DHT22;7888;46.748;8.102;2023-02-20T11:51:43;19.20;40.90
15574;DHT22;7888;46.748;8.102;2023-02-20T11:54:24;19.30;41.60
15574;DHT22;7888;46.748;8.102;2023-02-20T11:59:25;19.50;41.60
15574;DHT22;7888;46.748;8.102;2023-02-20T12:05:12;19.80;40.90
15574;DHT22;7888;46.748;8.102;2023-02-20T12:10:44;20.10;40.60
15574;DHT22;7888;46.748;8.102;2023-02-20T12:13:15;20.20;39.70
15574;DHT22;7888;46.748;8.102;2023-02-20T12:15:50;20.20;40.10
15574;DHT22;7888;46.748;8.102;2023-02-20T12:19:03;20.30;39.80
15574;DHT22;7888;46.748;8.102;2023-02-20T12:25:09;20.40;39.80
15574;DHT22;7888;46.748;8.102;2023-02-20T12:31:31;20.60;40.00
15574;DHT22;7888;46.748;8.102;2023-02-20T12:40:22;20.80;40.40
15574;DHT22;7888;46.748;8.102;2023-02-20T12:46:48;20.90;39.50
15574;DHT22;7888;46.748;8.102;2023-02-20T12:52:54;21.10;39.00
15574;DHT22;7888;46.748;8.102;2023-02-20T12:55:51;21.20;38.60
15574;DHT22;7888;46.748;8.102;2023-02-20T13:05:01;21.60;38.50
15574;DHT22;7888;46.748;8.102;2023-02-20T13:07:42;21.80;38.40
15574;DHT22;7888;46.748;8.102;2023-02-20T13:10:26;21.90;37.90
15574;DHT22;7888;46.748;8.102;2023-02-20T13:12:55;22.10;37.50
15574;DHT22;7888;46.748;8.102;2023-02-20T13:21:05;22.30;36.80
15574;DHT22;7888;46.748;8.102;2023-02-20T13:23:38;22.20;35.80
15574;DHT22;7888;46.748;8.102;2023-02-20T13:29:14;22.10;35.90
15574;DHT22;7888;46.748;8.102;2023-02-20T13:32:03;22.00;35.60
15574;DHT22;7888;46.748;8.102;2023-02-20T13:34:54;22.00;35.70
15574;DHT22;7888;46.748;8.102;2023-02-20T13:38:12;22.00;36.30
15574;DHT22;7888;46.748;8.102;2023-02-20T13:53:50;22.30;35.00
15574;DHT22;7888;46.748;8.102;2023-02-20T13:56:27;22.40;35.10
15574;DHT22;7888;46.748;8.102;2023-02-20T13:59:07;22.60;35.40
15574;DHT22;7888;46.748;8.102;2023-02-20T14:01:57;22.70;35.60
15574;DHT22;7888;46.748;8.102;2023-02-20T14:04:27;22.80;35.00
15574;DHT22;7888;46.748;8.102;2023-02-20T14:06:54;22.90;35.00
15574;DHT22;7888;46.748;8.102;2023-02-20T14:09:23;23.00;34.70
15574;DHT22;7888;46.748;8.102;2023-02-20T14:12:21;23.10;34.80
15574;DHT22;7888;46.748;8.102;2023-02-20T14:14:46;23.20;34.40
15574;DHT22;7888;46.748;8.102;2023-02-20T14:17:14;23.40;35.10
15574;DHT22;7888;46.748;8.102;2023-02-20T14:19:46;23.50;34.90
15574;DHT22;7888;46.748;8.102;2023-02-20T14:22:25;23.70;34.50
15574;DHT22;7888;46.748;8.102;2023-02-20T14:27:50;23.80;33.40
15574;DHT22;7888;46.748;8.102;2023-02-20T14:30:22;24.00;33.80
15574;DHT22;7888;46.748;8.102;2023-02-20T14:32:52;24.10;33.30
15574;DHT22;7888;46.748;8.102;2023-02-20T14:41:23;24.30;32.20
15574;DHT22;7888;46.748;8.102;2023-02-20T14:44:00;24.30;32.80
15574;DHT22;7888;46.748;8.102;2023-02-20T14:46:33;24.30;32.10
15574;DHT22;7888;46.748;8.102;2023-02-20T14:51:41;24.40;32.00
15574;DHT22;7888;46.748;8.102;2023-02-20T14:56:45;24.40;32.20
15574;DHT22;7888;46.748;8.102;2023-02-20T14:59:31;24.50;32.40
15574;DHT22;7888;46.748;8.102;2023-02-20T15:02:20;24.50;31.70
15574;DHT22;7888;46.748;8.102;2023-02-20T15:04:54;24.60;31.00
15574;DHT22;7888;46.748;8.102;2023-02-20T15:07:29;24.60;31.30
15574;DHT22;7888;46.748;8.102;2023-02-20T15:09:58;24.60;31.70
15574;DHT22;7888;46.748;8.102;2023-02-20T15:12:33;24.60;30.90
15574;DHT22;7888;46.748;8.102;2023-02-20T15:15:05;24.60;30.40
15574;DHT22;7888;46.748;8.102;2023-02-20T15:17:36;24.60;30.70
15574;DHT22;7888;46.748;8.102;2023-02-20T15:25:42;24.40;30.00
15574;DHT22;7888;46.748;8.102;2023-02-20T15:31:04;24.30;30.70
15574;DHT22;7888;46.748;8.102;2023-02-20T15:33:39;24.10;30.20
15574;DHT22;7888;46.748;8.102;2023-02-20T15:36:14;24.10;30.70
15574;DHT22;7888;46.748;8.102;2023-02-20T15:38:43;24.00;30.50
15574;DHT22;7888;46.748;8.102;2023-02-20T15:41:10;23.90;30.60
15574;DHT22;7888;46.748;8.102;2023-02-20T15:43:36;23.90;30.70
15574;DHT22;7888;46.748;8.102;2023-02-20T15:46:02;23.80;30.80
15574;DHT22;7888;46.748;8.102;2023-02-20T15:48:28;23.70;30.60
15574;DHT22;7888;46.748;8.102;2023-02-20T15:50:53;23.60;30.70
15574;DHT22;7888;46.748;8.102;2023-02-20T15:53:23;23.60;30.80
15574;DHT22;7888;46.748;8.102;2023-02-20T15:55:52;23.60;30.70
15574;DHT22;7888;46.748;8.102;2023-02-20T15:58:29;23.60;30.90
15574;DHT22;7888;46.748;8.102;2023-02-20T16:00:55;23.60;30.80
15574;DHT22;7888;46.748;8.102;2023-02-20T16:03:23;23.60;30.70
15574;DHT22;7888;46.748;8.102;2023-02-20T16:05:50;23.60;30.60
15574;DHT22;7888;46.748;8.102;2023-02-20T16:08:16;23.60;30.50
15574;DHT22;7888;46.748;8.102;2023-02-20T16:10:42;23.60;30.30
15574;DHT22;7888;46.748;8.102;2023-02-20T16:15:50;23.40;29.80
15574;DHT22;7888;46.748;8.102;2023-02-20T16:18:16;23.30;30.00
15574;DHT22;7888;46.748;8.102;2023-02-20T16:20:42;23.10;30.00
15574;DHT22;7888;46.748;8.102;2023-02-20T16:23:08;22.90;30.00
15574;DHT22;7888;46.748;8.102;2023-02-20T16:25:34;22.70;30.20
15574;DHT22;7888;46.748;8.102;2023-02-20T16:28:00;22.60;30.60
15574;DHT22;7888;46.748;8.102;2023-02-20T16:33:09;22.30;30.20
15574;DHT22;7888;46.748;8.102;2023-02-20T16:35:44;22.20;30.40
15574;DHT22;7888;46.748;8.102;2023-02-20T16:38:11;22.10;30.50
15574;DHT22;7888;46.748;8.102;2023-02-20T16:40:37;22.00;30.60
15574;DHT22;7888;46.748;8.102;2023-02-20T16:43:04;21.90;30.80
15574;DHT22;7888;46.748;8.102;2023-02-20T16:45:30;21.70;30.90
15574;DHT22;7888;46.748;8.102;2023-02-20T16:47:56;21.60;31.00
15574;DHT22;7888;46.748;8.102;2023-02-20T16:50:27;21.50;31.00
15574;DHT22;7888;46.748;8.102;2023-02-20T16:52:59;21.40;31.10
15574;DHT22;7888;46.748;8.102;2023-02-20T16:55:32;21.30;31.10
15574;DHT22;7888;46.748;8.102;2023-02-20T16:58:00;21.20;31.10
15574;DHT22;7888;46.748;8.102;2023-02-20T17:00:31;21.00;31.20
15574;DHT22;7888;46.748;8.102;2023-02-20T17:02:59;20.90;31.30
15574;DHT22;7888;46.748;8.102;2023-02-20T17:05:31;20.90;31.60
15574;DHT22;7888;46.748;8.102;2023-02-20T17:07:58;20.70;31.60
15574;DHT22;7888;46.748;8.102;2023-02-20T17:10:26;20.60;31.70
15574;DHT22;7888;46.748;8.102;2023-02-20T17:12:53;20.50;31.80
15574;DHT22;7888;46.748;8.102;2023-02-20T17:15:22;20.30;31.90
15574;DHT22;7888;46.748;8.102;2023-02-20T17:17:50;20.20;31.80
15574;DHT22;7888;46.748;8.102;2023-02-20T17:20:19;20.10;31.90
15574;DHT22;7888;46.748;8.102;2023-02-20T17:22:50;20.00;32.00
15574;DHT22;7888;46.748;8.102;2023-02-20T17:25:19;19.90;32.10
15574;DHT22;7888;46.748;8.102;2023-02-20T17:27:47;19.70;32.10
15574;DHT22;7888;46.748;8.102;2023-02-20T17:30:15;19.70;32.30
15574;DHT22;7888;46.748;8.102;2023-02-20T17:32:43;19.50;32.20
15574;DHT22;7888;46.748;8.102;2023-02-20T17:35:09;19.40;32.30
15574;DHT22;7888;46.748;8.102;2023-02-20T17:37:35;19.30;32.40
15574;DHT22;7888;46.748;8.102;2023-02-20T17:40:02;19.20;32.60
15574;DHT22;7888;46.748;8.102;2023-02-20T17:42:28;19.10;32.70
15574;DHT22;7888;46.748;8.102;2023-02-20T17:44:55;19.00;32.70
15574;DHT22;7888;46.748;8.102;2023-02-20T17:47:22;18.90;32.80
15574;DHT22;7888;46.748;8.102;2023-02-20T17:49:52;18.80;33.00
15574;DHT22;7888;46.748;8.102;2023-02-20T17:52:21;18.70;33.10
15574;DHT22;7888;46.748;8.102;2023-02-20T17:54:50;18.50;33.20
15574;DHT22;7888;46.748;8.102;2023-02-20T17:57:19;18.40;33.30
15574;DHT22;7888;46.748;8.102;2023-02-20T17:59:46;18.30;33.50
15574;DHT22;7888;46.748;8.102;2023-02-20T18:02:14;18.20;33.60
15574;DHT22;7888;46.748;8.102;2023-02-20T18:04:41;18.10;33.60
15574;DHT22;7888;46.748;8.102;2023-02-20T18:07:08;18.00;33.70
15574;DHT22;7888;46.748;8.102;2023-02-20T18:09:35;17.90;33.80
15574;DHT22;7888;46.748;8.102;2023-02-20T18:12:03;17.80;33.90
15574;DHT22;7888;46.748;8.102;2023-02-20T18:14:30;17.70;33.90
15574;DHT22;7888;46.748;8.102;2023-02-20T18:16:56;17.60;34.00
15574;DHT22;7888;46.748;8.102;2023-02-20T18:19:22;17.50;34.10
15574;DHT22;7888;46.748;8.102;2023-02-20T18:21:49;17.40;34.30
15574;DHT22;7888;46.748;8.102;2023-02-20T18:24:19;17.30;34.30